PWSweather.com
Personal Weather Stations
Station Observations
SHAHALMS1
Eftra, Falkenberg, HA

EftraFalkenberg, HA

Lat: 56.85, Lon: 12.65

Elevation: 140

Station Type:

http://hem.passagen.se/risarp101

High Low Average
Temperature 48.6°F9.2°C 39.0°F3.9°C 42.8°F6.0°C
Dew Point 45.9°F7.7°C 36.6°F2.6°C 40.6°F4.8°C
Winds 14.4 mph 23.2 kmh 3.1 mph 5.0 kmh 8.0 mph S12.9 kmh S
Wind Gusts 38.7 mph62.3 kmh 7.9 mph12.7 kmh 18.0 mph29.0 kmh
Humidity 96% 85% 92%
Pressure 29.30 in992.2 mb 28.80 in975.3 mb -
Precipitation 0.84 in21.3 mm - -
Hour Temp Dew Point Humidity Winds Wind Gusts Pressure Precip Precip Rate Daily Precip Total
12:00 AM 41.2°F5.1°C 37.6°F3.1°C 87% 7.1 mph S11.4 kmh S 16.1 mph25.9 kmh 29.30 in992.2 mb 0.00 in0.0 mm 0.00 in0.0 mm 0.00 in0.0 mm
12:15 AM 41.4°F5.2°C 37.5°F3.1°C 86% 6.3 mph S10.1 kmh S 14.0 mph22.5 kmh 29.30 in992.2 mb 0.00 in0.0 mm 0.00 in0.0 mm 0.00 in0.0 mm
12:30 AM 41.2°F5.1°C 37.0°F2.8°C 85% 5.6 mph S9.0 kmh S 12.2 mph19.6 kmh 29.30 in992.2 mb 0.00 in0.0 mm 0.00 in0.0 mm 0.00 in0.0 mm
12:46 AM 40.8°F4.9°C 37.0°F2.8°C 86% 5.7 mph S9.2 kmh S 13.6 mph21.9 kmh 29.30 in992.2 mb 0.00 in0.0 mm 0.00 in0.0 mm 0.00 in0.0 mm
01:00 AM 40.5°F4.7°C 36.6°F2.6°C 86% 6.6 mph S10.6 kmh S 16.8 mph27.0 kmh 29.27 in991.2 mb 0.00 in0.0 mm 0.00 in0.0 mm 0.00 in0.0 mm
01:15 AM 40.5°F4.7°C 36.9°F2.7°C 87% 6.6 mph S10.6 kmh S 12.9 mph20.8 kmh 29.27 in991.2 mb 0.00 in0.0 mm 0.00 in0.0 mm 0.00 in0.0 mm
01:30 AM 40.3°F4.6°C 37.0°F2.8°C 88% 7.0 mph S11.3 kmh S 17.5 mph28.2 kmh 29.24 in990.2 mb 0.00 in0.0 mm 0.00 in0.0 mm 0.00 in0.0 mm
01:45 AM 40.5°F4.7°C 37.8°F3.2°C 90% 7.2 mph S11.6 kmh S 16.1 mph25.9 kmh 29.24 in990.2 mb 0.00 in0.0 mm 0.00 in0.0 mm 0.00 in0.0 mm
02:00 AM 40.6°F4.8°C 38.2°F3.4°C 91% 5.5 mph S8.9 kmh S 10.4 mph16.7 kmh 29.24 in990.2 mb 0.00 in0.0 mm 0.00 in0.0 mm 0.00 in0.0 mm
02:15 AM 40.6°F4.8°C 38.5°F3.6°C 92% 5.4 mph S8.7 kmh S 15.0 mph24.1 kmh 29.24 in990.2 mb 0.00 in0.0 mm 0.00 in0.0 mm 0.00 in0.0 mm
02:30 AM 40.3°F4.6°C 38.1°F3.4°C 92% 3.8 mph S6.1 kmh S 11.1 mph17.9 kmh 29.24 in990.2 mb 0.00 in0.0 mm 0.00 in0.0 mm 0.00 in0.0 mm
02:45 AM 40.1°F4.5°C 38.0°F3.3°C 92% 3.1 mph SSE5.0 kmh SSE 7.9 mph12.7 kmh 29.21 in989.2 mb 0.06 in1.5 mm 0.24 in6.1 mm 0.06 in1.5 mm
03:00 AM 39.9°F4.4°C 37.8°F3.2°C 92% 4.2 mph SE6.8 kmh SE 13.6 mph21.9 kmh 29.21 in989.2 mb 0.06 in1.5 mm 0.00 in0.0 mm 0.06 in1.5 mm
03:15 AM 39.6°F4.2°C 37.4°F3.0°C 92% 5.8 mph ESE9.3 kmh ESE 10.7 mph17.2 kmh 29.21 in989.2 mb 0.06 in1.5 mm 0.00 in0.0 mm 0.06 in1.5 mm
03:30 AM 39.4°F4.1°C 37.2°F2.9°C 92% 6.5 mph E10.5 kmh E 14.0 mph22.5 kmh 29.18 in988.1 mb 0.06 in1.5 mm 0.00 in0.0 mm 0.06 in1.5 mm
03:45 AM 39.4°F4.1°C 37.2°F2.9°C 92% 9.7 mph ESE15.6 kmh ESE 19.7 mph31.7 kmh 29.18 in988.1 mb 0.04 in1.0 mm 0.00 in0.0 mm 0.10 in2.5 mm
04:00 AM 39.2°F4.0°C 37.1°F2.8°C 92% 8.3 mph ESE13.4 kmh ESE 19.3 mph31.1 kmh 29.18 in988.1 mb 0.04 in1.0 mm 0.00 in0.0 mm 0.10 in2.5 mm
04:15 AM 39.0°F3.9°C 36.9°F2.7°C 92% 7.3 mph E11.7 kmh E 13.6 mph21.9 kmh 29.15 in987.1 mb 0.04 in1.0 mm 0.00 in0.0 mm 0.10 in2.5 mm
04:30 AM 39.0°F3.9°C 36.9°F2.7°C 92% 8.4 mph E13.5 kmh E 16.5 mph26.6 kmh 29.12 in986.1 mb 0.04 in1.0 mm 0.00 in0.0 mm 0.10 in2.5 mm
04:45 AM 39.0°F3.9°C 36.9°F2.7°C 92% 8.2 mph ESE13.2 kmh ESE 15.4 mph24.8 kmh 29.15 in987.1 mb 0.00 in0.0 mm 0.00 in0.0 mm 0.10 in2.5 mm
05:00 AM 39.2°F4.0°C 37.3°F2.9°C 93% 9.1 mph ESE14.6 kmh ESE 17.2 mph27.7 kmh 29.12 in986.1 mb 0.00 in0.0 mm 0.00 in0.0 mm 0.10 in2.5 mm
05:15 AM 39.4°F4.1°C 37.8°F3.2°C 94% 8.9 mph ESE14.3 kmh ESE 19.3 mph31.1 kmh 29.09 in985.1 mb 0.06 in1.5 mm 0.24 in6.1 mm 0.16 in4.1 mm
05:30 AM 40.3°F4.6°C 39.0°F3.9°C 95% 10.4 mph SE16.7 kmh SE 21.1 mph34.0 kmh 29.09 in985.1 mb 0.06 in1.5 mm 0.00 in0.0 mm 0.16 in4.1 mm
05:45 AM 41.4°F5.2°C 40.0°F4.4°C 95% 11.1 mph SE17.9 kmh SE 19.7 mph31.7 kmh 29.09 in985.1 mb 0.06 in1.5 mm 0.00 in0.0 mm 0.16 in4.1 mm
06:00 AM 42.8°F6.0°C 41.7°F5.4°C 96% 9.6 mph S15.4 kmh S 20.8 mph33.5 kmh 29.06 in984.1 mb 0.06 in1.5 mm 0.00 in0.0 mm 0.16 in4.1 mm
06:15 AM 43.9°F6.6°C 42.8°F6.0°C 96% 9.9 mph S15.9 kmh S 20.4 mph32.8 kmh 29.06 in984.1 mb 0.00 in0.0 mm 0.00 in0.0 mm 0.16 in4.1 mm
06:30 AM 44.4°F6.9°C 43.4°F6.3°C 96% 13.0 mph S20.9 kmh S 28.3 mph45.5 kmh 29.06 in984.1 mb 0.00 in0.0 mm 0.00 in0.0 mm 0.16 in4.1 mm
06:45 AM 44.4°F6.9°C 43.1°F6.2°C 95% 9.4 mph S15.1 kmh S 20.8 mph33.5 kmh 29.06 in984.1 mb 0.00 in0.0 mm 0.00 in0.0 mm 0.16 in4.1 mm
07:00 AM 44.1°F6.7°C 42.4°F5.8°C 94% 10.7 mph S17.2 kmh S 24.7 mph39.8 kmh 29.06 in984.1 mb 0.00 in0.0 mm 0.00 in0.0 mm 0.16 in4.1 mm
07:15 AM 43.7°F6.5°C 41.8°F5.4°C 93% 11.4 mph S18.3 kmh S 27.2 mph43.8 kmh 29.06 in984.1 mb 0.00 in0.0 mm 0.00 in0.0 mm 0.16 in4.1 mm
07:30 AM 43.7°F6.5°C 41.8°F5.4°C 93% 10.9 mph S17.5 kmh S 24.7 mph39.8 kmh 29.03 in983.1 mb 0.00 in0.0 mm 0.00 in0.0 mm 0.16 in4.1 mm
07:45 AM 44.4°F6.9°C 42.8°F6.0°C 94% 9.3 mph S15.0 kmh S 19.7 mph31.7 kmh 29.03 in983.1 mb 0.00 in0.0 mm 0.00 in0.0 mm 0.16 in4.1 mm
08:00 AM 45.0°F7.2°C 43.3°F6.3°C 94% 8.4 mph S13.5 kmh S 19.7 mph31.7 kmh 29.03 in983.1 mb 0.00 in0.0 mm 0.00 in0.0 mm 0.16 in4.1 mm
08:15 AM 46.2°F7.9°C 44.6°F7.0°C 94% 9.6 mph S15.4 kmh S 19.3 mph31.1 kmh 29.03 in983.1 mb 0.00 in0.0 mm 0.00 in0.0 mm 0.16 in4.1 mm
08:30 AM 46.8°F8.2°C 44.6°F7.0°C 92% 9.5 mph S15.3 kmh S 20.8 mph33.5 kmh 29.00 in982.1 mb 0.00 in0.0 mm 0.00 in0.0 mm 0.16 in4.1 mm
08:47 AM 46.9°F8.3°C 44.4°F6.9°C 91% 10.4 mph S16.7 kmh S 17.2 mph27.7 kmh 29.00 in982.1 mb 0.00 in0.0 mm 0.00 in0.0 mm 0.16 in4.1 mm
08:48 AM 46.9°F8.3°C 44.4°F6.9°C 91% 11.1 mph S17.9 kmh S 17.2 mph27.7 kmh 29.00 in982.1 mb 0.00 in0.0 mm 0.00 in0.0 mm 0.16 in4.1 mm
08:49 AM 46.9°F8.3°C 44.4°F6.9°C 91% 9.9 mph S15.9 kmh S 17.2 mph27.7 kmh 29.00 in982.1 mb 0.00 in0.0 mm 0.00 in0.0 mm 0.16 in4.1 mm
08:50 AM 46.9°F8.3°C 44.4°F6.9°C 91% 10.6 mph S17.1 kmh S 17.2 mph27.7 kmh 29.00 in982.1 mb 0.00 in0.0 mm 0.00 in0.0 mm 0.16 in4.1 mm
08:51 AM 46.8°F8.2°C 44.3°F6.8°C 91% 10.1 mph S16.3 kmh S 17.2 mph27.7 kmh 29.00 in982.1 mb 0.00 in0.0 mm 0.00 in0.0 mm 0.16 in4.1 mm
08:52 AM 46.8°F8.2°C 44.3°F6.8°C 91% 10.1 mph S16.3 kmh S 17.2 mph27.7 kmh 28.97 in981.0 mb 0.00 in0.0 mm 0.00 in0.0 mm 0.16 in4.1 mm
08:53 AM 46.8°F8.2°C 44.3°F6.8°C 91% 9.3 mph S15.0 kmh S 17.2 mph27.7 kmh 28.97 in981.0 mb 0.00 in0.0 mm 0.00 in0.0 mm 0.16 in4.1 mm
09:00 AM 46.9°F8.3°C 44.7°F7.1°C 92% 8.0 mph S12.9 kmh S 16.5 mph26.6 kmh 28.97 in981.0 mb 0.00 in0.0 mm 0.00 in0.0 mm 0.16 in4.1 mm
09:15 AM 47.1°F8.4°C 44.9°F7.2°C 92% 7.8 mph S12.6 kmh S 19.3 mph31.1 kmh 28.97 in981.0 mb 0.00 in0.0 mm 0.00 in0.0 mm 0.16 in4.1 mm
09:30 AM 47.5°F8.6°C 45.3°F7.4°C 92% 7.8 mph S12.6 kmh S 15.0 mph24.1 kmh 29.00 in982.1 mb 0.00 in0.0 mm 0.00 in0.0 mm 0.16 in4.1 mm
09:45 AM 48.4°F9.1°C 45.9°F7.7°C 91% 8.5 mph S13.7 kmh S 21.1 mph34.0 kmh 29.00 in982.1 mb 0.00 in0.0 mm 0.00 in0.0 mm 0.16 in4.1 mm
10:00 AM 48.0°F8.9°C 45.2°F7.3°C 90% 7.2 mph S11.6 kmh S 17.5 mph28.2 kmh 28.97 in981.0 mb 0.00 in0.0 mm 0.00 in0.0 mm 0.16 in4.1 mm
10:15 AM 48.6°F9.2°C 45.8°F7.7°C 90% 5.8 mph S9.3 kmh S 23.6 mph38.0 kmh 28.97 in981.0 mb 0.00 in0.0 mm 0.00 in0.0 mm 0.16 in4.1 mm
10:30 AM 48.2°F9.0°C 45.1°F7.3°C 89% 6.2 mph S10.0 kmh S 12.9 mph20.8 kmh 28.97 in981.0 mb 0.00 in0.0 mm 0.00 in0.0 mm 0.16 in4.1 mm
10:45 AM 48.4°F9.1°C 45.0°F7.2°C 88% 7.3 mph SSE11.7 kmh SSE 20.8 mph33.5 kmh 28.91 in979.0 mb 0.00 in0.0 mm 0.00 in0.0 mm 0.16 in4.1 mm
11:00 AM 47.8°F8.8°C 44.2°F6.8°C 87% 6.3 mph SSE10.1 kmh SSE 17.5 mph28.2 kmh 28.94 in980.0 mb 0.00 in0.0 mm 0.00 in0.0 mm 0.16 in4.1 mm
11:15 AM 46.8°F8.2°C 43.7°F6.5°C 89% 6.2 mph S10.0 kmh S 20.0 mph32.2 kmh 28.94 in980.0 mb 0.10 in2.5 mm 0.40 in10.2 mm 0.26 in6.6 mm
11:30 AM 46.4°F8.0°C 43.9°F6.6°C 91% 4.3 mph S6.9 kmh S 11.5 mph18.5 kmh 28.94 in980.0 mb 0.15 in3.8 mm 0.20 in5.1 mm 0.31 in7.9 mm
11:45 AM 46.6°F8.1°C 44.4°F6.9°C 92% 6.8 mph SE10.9 kmh SE 16.5 mph26.6 kmh 28.91 in979.0 mb 0.15 in3.8 mm 0.00 in0.0 mm 0.31 in7.9 mm
12:00 PM 46.9°F8.3°C 45.0°F7.2°C 93% 7.3 mph SSE11.7 kmh SSE 15.7 mph25.3 kmh 28.88 in978.0 mb 0.15 in3.8 mm 0.00 in0.0 mm 0.31 in7.9 mm
12:15 PM 47.1°F8.4°C 45.2°F7.3°C 93% 5.4 mph SE8.7 kmh SE 17.2 mph27.7 kmh 28.88 in978.0 mb 0.05 in1.3 mm 0.00 in0.0 mm 0.31 in7.9 mm
12:30 PM 46.9°F8.3°C 44.7°F7.1°C 92% 9.4 mph SE15.1 kmh SE 19.7 mph31.7 kmh 28.88 in978.0 mb 0.00 in0.0 mm 0.00 in0.0 mm 0.31 in7.9 mm
12:45 PM 47.1°F8.4°C 45.2°F7.3°C 93% 10.0 mph S16.1 kmh S 20.0 mph32.2 kmh 28.85 in977.0 mb 0.00 in0.0 mm 0.00 in0.0 mm 0.31 in7.9 mm
01:00 PM 46.8°F8.2°C 44.6°F7.0°C 92% 7.6 mph S12.2 kmh S 27.2 mph43.8 kmh 28.85 in977.0 mb 0.05 in1.3 mm 0.07 in1.8 mm 0.36 in9.1 mm
01:15 PM 46.6°F8.1°C 44.4°F6.9°C 92% 5.2 mph S8.4 kmh S 14.3 mph23.0 kmh 28.85 in977.0 mb 0.10 in2.5 mm 0.20 in5.1 mm 0.41 in10.4 mm
01:30 PM 46.2°F7.9°C 44.0°F6.7°C 92% 4.6 mph S7.4 kmh S 11.8 mph19.0 kmh 28.85 in977.0 mb 0.16 in4.1 mm 0.24 in6.1 mm 0.47 in11.9 mm
01:45 PM 45.7°F7.6°C 43.5°F6.4°C 92% 7.3 mph S11.7 kmh S 21.1 mph34.0 kmh 28.82 in976.0 mb 0.21 in5.3 mm 0.20 in5.1 mm 0.52 in13.2 mm
02:00 PM 45.0°F7.2°C 43.1°F6.2°C 93% 9.3 mph SSW15.0 kmh SSW 19.3 mph31.1 kmh 28.82 in976.0 mb 0.21 in5.3 mm 0.00 in0.0 mm 0.62 in15.7 mm
02:15 PM 44.1°F6.7°C 42.2°F5.7°C 93% 10.2 mph S16.4 kmh S 27.6 mph44.4 kmh 28.82 in976.0 mb 0.31 in7.9 mm 0.40 in10.2 mm 0.72 in18.3 mm
02:30 PM 43.7°F6.5°C 42.1°F5.6°C 94% 13.1 mph SSW21.1 kmh SSW 38.7 mph62.3 kmh 28.82 in976.0 mb 0.30 in7.6 mm 0.00 in0.0 mm 0.77 in19.6 mm
02:45 PM 43.3°F6.3°C 41.7°F5.4°C 94% 11.8 mph SW19.0 kmh SW 24.7 mph39.8 kmh 28.80 in975.3 mb 0.25 in6.4 mm 0.00 in0.0 mm 0.77 in19.6 mm
03:00 PM 42.8°F6.0°C 41.2°F5.1°C 94% 11.7 mph SSW18.8 kmh SSW 26.5 mph42.6 kmh 28.80 in975.3 mb 0.15 in3.8 mm 0.00 in0.0 mm 0.77 in19.6 mm
03:15 PM 42.8°F6.0°C 41.2°F5.1°C 94% 12.4 mph SSW20.0 kmh SSW 26.1 mph42.0 kmh 28.80 in975.3 mb 0.11 in2.8 mm 0.00 in0.0 mm 0.84 in21.3 mm
03:30 PM 42.4°F5.8°C 40.8°F4.9°C 94% 12.6 mph S20.3 kmh S 26.8 mph43.1 kmh 28.80 in975.3 mb 0.06 in1.5 mm 0.00 in0.0 mm 0.84 in21.3 mm
03:45 PM 42.3°F5.7°C 40.7°F4.8°C 94% 10.7 mph SSW17.2 kmh SSW 23.6 mph38.0 kmh 28.82 in976.0 mb 0.06 in1.5 mm 0.00 in0.0 mm 0.84 in21.3 mm
04:00 PM 42.1°F5.6°C 40.5°F4.7°C 94% 12.1 mph SW19.5 kmh SW 27.2 mph43.8 kmh 28.80 in975.3 mb 0.06 in1.5 mm 0.00 in0.0 mm 0.84 in21.3 mm
04:15 PM 41.7°F5.4°C 40.1°F4.5°C 94% 12.9 mph WSW20.8 kmh WSW 31.5 mph50.7 kmh 28.82 in976.0 mb 0.00 in0.0 mm 0.00 in0.0 mm 0.84 in21.3 mm
04:30 PM 42.3°F5.7°C 40.7°F4.8°C 94% 11.0 mph SSW17.7 kmh SSW 20.8 mph33.5 kmh 28.80 in975.3 mb 0.00 in0.0 mm 0.00 in0.0 mm 0.84 in21.3 mm
04:45 PM 41.9°F5.5°C 39.7°F4.3°C 92% 12.1 mph SW19.5 kmh SW 24.7 mph39.8 kmh 28.82 in976.0 mb 0.00 in0.0 mm 0.00 in0.0 mm 0.84 in21.3 mm
05:00 PM 41.5°F5.3°C 39.1°F3.9°C 91% 14.4 mph SW23.2 kmh SW 27.2 mph43.8 kmh 28.82 in976.0 mb 0.00 in0.0 mm 0.00 in0.0 mm 0.84 in21.3 mm
05:15 PM 41.0°F5.0°C 38.3°F3.5°C 90% 13.1 mph SW21.1 kmh SW 25.4 mph40.9 kmh 28.80 in975.3 mb 0.00 in0.0 mm 0.00 in0.0 mm 0.84 in21.3 mm
05:30 PM 40.6°F4.8°C 37.9°F3.3°C 90% 10.4 mph SSW16.7 kmh SSW 26.1 mph42.0 kmh 28.80 in975.3 mb 0.00 in0.0 mm 0.00 in0.0 mm 0.84 in21.3 mm
05:45 PM 40.5°F4.7°C 37.8°F3.2°C 90% 9.1 mph SW14.6 kmh SW 19.7 mph31.7 kmh 28.80 in975.3 mb 0.00 in0.0 mm 0.00 in0.0 mm 0.84 in21.3 mm
06:00 PM 40.3°F4.6°C 37.6°F3.1°C 90% 12.1 mph SSW19.5 kmh SSW 24.7 mph39.8 kmh 28.80 in975.3 mb 0.00 in0.0 mm 0.00 in0.0 mm 0.84 in21.3 mm
06:15 PM 40.3°F4.6°C 37.6°F3.1°C 90% 9.3 mph SW15.0 kmh SW 21.5 mph34.6 kmh 28.82 in976.0 mb 0.00 in0.0 mm 0.00 in0.0 mm 0.84 in21.3 mm
06:30 PM 40.1°F4.5°C 37.7°F3.2°C 91% 9.3 mph SSW15.0 kmh SSW 21.1 mph34.0 kmh 28.80 in975.3 mb 0.00 in0.0 mm 0.00 in0.0 mm 0.84 in21.3 mm
06:45 PM 40.1°F4.5°C 37.7°F3.2°C 91% 9.4 mph S15.1 kmh S 21.1 mph34.0 kmh 28.82 in976.0 mb 0.00 in0.0 mm 0.00 in0.0 mm 0.84 in21.3 mm
07:00 PM 40.1°F4.5°C 38.0°F3.3°C 92% 6.9 mph SW11.1 kmh SW 16.1 mph25.9 kmh 28.82 in976.0 mb 0.00 in0.0 mm 0.00 in0.0 mm 0.84 in21.3 mm
07:15 PM 40.3°F4.6°C 38.1°F3.4°C 92% 6.7 mph S10.8 kmh S 12.2 mph19.6 kmh 28.82 in976.0 mb 0.00 in0.0 mm 0.00 in0.0 mm 0.84 in21.3 mm
07:30 PM 40.3°F4.6°C 38.1°F3.4°C 92% 7.0 mph SSW11.3 kmh SSW 16.1 mph25.9 kmh 28.82 in976.0 mb 0.00 in0.0 mm 0.00 in0.0 mm 0.84 in21.3 mm
07:45 PM 40.3°F4.6°C 38.1°F3.4°C 92% 6.9 mph S11.1 kmh S 15.4 mph24.8 kmh 28.82 in976.0 mb 0.00 in0.0 mm 0.00 in0.0 mm 0.84 in21.3 mm
08:00 PM 40.5°F4.7°C 38.3°F3.5°C 92% 6.0 mph S9.7 kmh S 12.5 mph20.1 kmh 28.82 in976.0 mb 0.00 in0.0 mm 0.00 in0.0 mm 0.84 in21.3 mm
08:15 PM 40.5°F4.7°C 38.3°F3.5°C 92% 6.2 mph S10.0 kmh S 12.2 mph19.6 kmh 28.82 in976.0 mb 0.00 in0.0 mm 0.00 in0.0 mm 0.84 in21.3 mm
08:29 PM 40.5°F4.7°C 38.3°F3.5°C 92% 8.0 mph SW12.9 kmh SW 12.1 mph19.5 kmh 28.82 in976.0 mb 0.00 in0.0 mm 0.00 in0.0 mm 0.84 in21.3 mm
08:30 PM 40.5°F4.7°C 38.3°F3.5°C 92% 7.1 mph SW11.4 kmh SW 10.0 mph16.1 kmh 28.82 in976.0 mb 0.00 in0.0 mm 0.00 in0.0 mm 0.84 in21.3 mm
08:32 PM 40.5°F4.7°C 38.3°F3.5°C 92% 6.1 mph S9.8 kmh S 12.9 mph20.8 kmh 28.82 in976.0 mb 0.00 in0.0 mm 0.00 in0.0 mm 0.84 in21.3 mm
08:45 PM 40.5°F4.7°C 38.3°F3.5°C 92% 6.0 mph S9.7 kmh S 15.0 mph24.1 kmh 28.82 in976.0 mb 0.00 in0.0 mm 0.00 in0.0 mm 0.84 in21.3 mm
09:00 PM 40.3°F4.6°C 38.1°F3.4°C 92% 6.8 mph S10.9 kmh S 15.7 mph25.3 kmh 28.82 in976.0 mb 0.00 in0.0 mm 0.00 in0.0 mm 0.84 in21.3 mm
09:15 PM 40.3°F4.6°C 38.1°F3.4°C 92% 6.3 mph S10.1 kmh S 12.5 mph20.1 kmh 28.82 in976.0 mb 0.00 in0.0 mm 0.00 in0.0 mm 0.84 in21.3 mm
09:30 PM 40.3°F4.6°C 38.4°F3.6°C 93% 5.4 mph SSW8.7 kmh SSW 10.4 mph16.7 kmh 28.82 in976.0 mb 0.00 in0.0 mm 0.00 in0.0 mm 0.84 in21.3 mm
09:45 PM 40.3°F4.6°C 38.4°F3.6°C 93% 6.5 mph S10.5 kmh S 15.0 mph24.1 kmh 28.82 in976.0 mb 0.00 in0.0 mm 0.00 in0.0 mm 0.84 in21.3 mm
10:00 PM 40.3°F4.6°C 38.4°F3.6°C 93% 5.7 mph SW9.2 kmh SW 12.2 mph19.6 kmh 28.82 in976.0 mb 0.00 in0.0 mm 0.00 in0.0 mm 0.84 in21.3 mm
10:15 PM 40.3°F4.6°C 38.4°F3.6°C 93% 6.9 mph WSW11.1 kmh WSW 11.8 mph19.0 kmh 28.82 in976.0 mb 0.00 in0.0 mm 0.00 in0.0 mm 0.84 in21.3 mm
10:30 PM 40.1°F4.5°C 38.2°F3.4°C 93% 6.2 mph W10.0 kmh W 11.8 mph19.0 kmh 28.80 in975.3 mb 0.00 in0.0 mm 0.00 in0.0 mm 0.84 in21.3 mm
10:45 PM 40.1°F4.5°C 38.2°F3.4°C 93% 5.6 mph SW9.0 kmh SW 10.0 mph16.1 kmh 28.82 in976.0 mb 0.00 in0.0 mm 0.00 in0.0 mm 0.84 in21.3 mm
11:00 PM 40.1°F4.5°C 38.2°F3.4°C 93% 5.2 mph W8.4 kmh W 10.4 mph16.7 kmh 28.82 in976.0 mb 0.00 in0.0 mm 0.00 in0.0 mm 0.84 in21.3 mm
11:15 PM 40.1°F4.5°C 38.2°F3.4°C 93% 4.4 mph W7.1 kmh W 9.7 mph15.6 kmh 28.82 in976.0 mb 0.00 in0.0 mm 0.00 in0.0 mm 0.84 in21.3 mm
11:30 PM 40.3°F4.6°C 38.4°F3.6°C 93% 3.1 mph W5.0 kmh W 7.9 mph12.7 kmh 28.82 in976.0 mb 0.00 in0.0 mm 0.00 in0.0 mm 0.84 in21.3 mm
11:45 PM 40.3°F4.6°C 38.4°F3.6°C 93% 3.5 mph W5.6 kmh W 7.9 mph12.7 kmh 28.85 in977.0 mb 0.00 in0.0 mm 0.00 in0.0 mm 0.84 in21.3 mm